createdAt,value
2019-03-13T00:02:31.163Z,100028.32
2019-03-13T00:05:02.500Z,100031.38
2019-03-13T00:07:32.957Z,100022.23
2019-03-13T00:10:03.630Z,100012.93
2019-03-13T00:12:34.107Z,99993.43
2019-03-13T00:15:08.707Z,99991.16
2019-03-13T00:17:39.291Z,99993.90
2019-03-13T00:20:10.491Z,99992.66
2019-03-13T00:22:40.884Z,99980.19
2019-03-13T00:25:11.249Z,99977.14
2019-03-13T00:27:41.610Z,99978.28
2019-03-13T00:30:13.015Z,99975.39
2019-03-13T00:32:43.370Z,99978.42
2019-03-13T00:35:13.738Z,99967.30
2019-03-13T00:37:44.097Z,99965.92
2019-03-13T00:40:14.479Z,99965.25
2019-03-13T00:42:44.833Z,99954.39
2019-03-13T00:45:15.766Z,99942.53
2019-03-13T00:47:46.139Z,99944.91
2019-03-13T00:50:27.982Z,99934.65
2019-03-13T00:52:58.341Z,99932.23
2019-03-13T00:55:28.712Z,99930.47
2019-03-13T00:57:59.107Z,99923.67
2019-03-13T01:00:42.901Z,99921.62
2019-03-13T01:03:14.911Z,99910.09
2019-03-13T01:06:11.852Z,99904.67
2019-03-13T01:08:42.250Z,99892.21
2019-03-13T01:11:12.624Z,99891.20
2019-03-13T01:13:42.988Z,99879.56
2019-03-13T01:16:13.512Z,99871.26
2019-03-13T01:18:43.892Z,99863.91
2019-03-13T01:21:15.221Z,99866.48
2019-03-13T01:23:45.601Z,99858.34
2019-03-13T01:26:15.930Z,99850.57
2019-03-13T01:28:46.304Z,99842.80
2019-03-13T01:31:36.614Z,99839.44
2019-03-13T01:34:08.628Z,99818.40
2019-03-13T01:36:39.010Z,99814.22
2019-03-13T01:39:09.379Z,99807.25
2019-03-13T01:41:39.906Z,99802.56
2019-03-13T01:44:10.214Z,99788.43
2019-03-13T01:46:40.562Z,99779.58
2019-03-13T01:49:12.014Z,99783.75
2019-03-13T01:51:42.317Z,99770.81
2019-03-13T01:54:12.723Z,99761.68
2019-03-13T01:56:43.018Z,99763.74
2019-03-13T01:59:13.339Z,99755.33
2019-03-13T02:01:43.708Z,99747.91
2019-03-13T02:04:14.020Z,99741.53
2019-03-13T02:06:44.308Z,99737.86
2019-03-13T02:09:14.891Z,99738.39
2019-03-13T02:11:45.382Z,99735.00
2019-03-13T02:14:15.660Z,99733.57
2019-03-13T02:16:45.965Z,99720.61
2019-03-13T02:19:16.255Z,99718.44
2019-03-13T02:21:46.648Z,99702.77
2019-03-13T02:24:17.033Z,99705.93
2019-03-13T02:26:47.413Z,99703.00
2019-03-13T02:29:18.296Z,99689.77
2019-03-13T02:31:48.673Z,99684.02
2019-03-13T02:34:19.047Z,99687.45
2019-03-13T02:36:49.438Z,99678.32
2019-03-13T02:39:19.825Z,99681.09
2019-03-13T02:41:50.198Z,99678.70
2019-03-13T02:44:20.484Z,99670.11
2019-03-13T02:46:50.796Z,99670.50
2019-03-13T02:49:21.227Z,99666.41
2019-03-13T02:51:51.586Z,99657.43
2019-03-13T02:54:21.944Z,99651.35
2019-03-13T02:56:52.358Z,99652.41
2019-03-13T02:59:22.737Z,99663.80
2019-03-13T03:01:54.829Z,99671.61
2019-03-13T03:04:25.206Z,99676.24
2019-03-13T03:06:55.581Z,99662.70
2019-03-13T03:09:25.955Z,99662.43
2019-03-13T03:11:56.263Z,99660.13
2019-03-13T03:14:26.637Z,99658.56
2019-03-13T03:16:56.982Z,99658.97
2019-03-13T03:19:27.359Z,99654.08
2019-03-13T03:21:57.715Z,99664.63
2019-03-13T03:24:28.085Z,99664.31
2019-03-13T03:26:58.455Z,99661.14
2019-03-13T03:29:28.796Z,99660.26
2019-03-13T03:31:59.156Z,99656.02
2019-03-13T03:34:29.514Z,99655.56
2019-03-13T03:36:59.877Z,99649.44
2019-03-13T03:39:31.663Z,99646.44
2019-03-13T03:42:01.993Z,99643.57
2019-03-13T03:44:32.300Z,99641.92
2019-03-13T03:47:02.569Z,99649.30
2019-03-13T03:49:32.896Z,99648.88
2019-03-13T03:52:03.174Z,99645.27
2019-03-13T03:54:33.518Z,99638.41
2019-03-13T03:57:03.780Z,99645.81
2019-03-13T03:59:34.130Z,99633.70
2019-03-13T04:02:04.439Z,99635.61
2019-03-13T04:04:34.785Z,99628.31
2019-03-13T04:07:05.130Z,99630.51
2019-03-13T04:09:35.470Z,99625.13
2019-03-13T04:12:07.421Z,99619.88
2019-03-13T04:14:37.766Z,99615.97
2019-03-13T04:17:08.173Z,99624.85
2019-03-13T04:19:38.482Z,99615.32
2019-03-13T04:22:08.789Z,99624.81
2019-03-13T04:24:39.105Z,99620.81
2019-03-13T04:27:09.458Z,99623.70
2019-03-13T04:29:39.810Z,99628.51
2019-03-13T04:32:10.195Z,99629.89
2019-03-13T04:34:40.554Z,99635.84
2019-03-13T04:37:10.943Z,99629.89
2019-03-13T04:39:41.313Z,99645.85
2019-03-13T04:42:11.660Z,99640.36
2019-03-13T04:44:42.034Z,99644.13
2019-03-13T04:47:12.305Z,99644.09
2019-03-13T04:49:42.590Z,99654.30
2019-03-13T04:52:12.943Z,99655.45
2019-03-13T04:54:43.267Z,99655.25
2019-03-13T04:57:13.623Z,99657.25
2019-03-13T04:59:43.974Z,99655.91
2019-03-13T05:02:14.312Z,99653.23
2019-03-13T05:04:44.663Z,99651.63
2019-03-13T05:07:15.015Z,99641.88
2019-03-13T05:09:45.365Z,99648.46
2019-03-13T05:12:15.691Z,99645.08
2019-03-13T05:14:45.961Z,99635.89
2019-03-13T05:17:16.318Z,99645.55
2019-03-13T05:19:46.591Z,99652.59
2019-03-13T05:22:18.646Z,99649.55
2019-03-13T05:24:48.936Z,99659.78
2019-03-13T05:27:19.401Z,99670.05
2019-03-13T05:29:49.808Z,99666.09
2019-03-13T05:32:20.548Z,99673.20
2019-03-13T05:34:50.916Z,99689.84
2019-03-13T05:37:21.287Z,99698.47
2019-03-13T05:39:51.713Z,99700.20
2019-03-13T05:42:22.006Z,99710.22
2019-03-13T05:44:52.363Z,99712.48
2019-03-13T05:47:22.728Z,99713.46
2019-03-13T05:49:53.115Z,99722.00
2019-03-13T05:52:23.459Z,99738.14
2019-03-13T05:54:53.871Z,99728.11
2019-03-13T05:57:24.240Z,99731.58
2019-03-13T05:59:54.788Z,99726.68
2019-03-13T06:02:25.140Z,99730.56
2019-03-13T06:04:55.405Z,99725.27
2019-03-13T06:07:25.690Z,99724.69
2019-03-13T06:09:56.036Z,99722.28
2019-03-13T06:12:26.685Z,99726.13
2019-03-13T06:14:57.019Z,99730.30
2019-03-13T06:17:28.096Z,99731.45
2019-03-13T06:19:58.358Z,99729.00
2019-03-13T06:22:28.790Z,99736.58
2019-03-13T06:24:59.134Z,99750.53
2019-03-13T06:27:29.889Z,99746.89
2019-03-13T06:30:00.378Z,99756.72
2019-03-13T06:32:30.986Z,99757.22
2019-03-13T06:35:01.331Z,99749.64
2019-03-13T06:37:31.683Z,99750.28
2019-03-13T06:40:01.969Z,99750.06
2019-03-13T06:42:33.814Z,99757.36
2019-03-13T06:45:06.334Z,99757.03
2019-03-13T06:47:36.678Z,99757.91
2019-03-13T06:50:15.274Z,99762.97
2019-03-13T06:52:45.624Z,99777.44
2019-03-13T06:55:15.969Z,99771.55
2019-03-13T06:57:46.311Z,99778.84
2019-03-13T07:00:31.051Z,99783.39
2019-03-13T07:03:55.924Z,99788.39
2019-03-13T07:06:37.001Z,99779.10
2019-03-13T07:09:15.209Z,99783.28
2019-03-13T07:11:53.035Z,99786.17
2019-03-13T07:14:41.738Z,99792.64
2019-03-13T07:17:13.744Z,99794.06
2019-03-13T07:19:45.672Z,99794.91
2019-03-13T07:22:34.080Z,99797.02
2019-03-13T07:25:06.440Z,99804.73
2019-03-13T07:27:53.728Z,99813.16
2019-03-13T07:30:25.696Z,99810.23
2019-03-13T07:33:06.449Z,99808.22
2019-03-13T07:35:38.399Z,99816.69
2019-03-13T07:38:29.273Z,99811.98
2019-03-13T07:41:04.064Z,99818.70
2019-03-13T07:43:41.942Z,99823.65
2019-03-13T07:46:19.737Z,99824.51
2019-03-13T07:48:51.725Z,99837.31
2019-03-13T07:51:35.976Z,99840.90
2019-03-13T07:54:07.960Z,99845.50
2019-03-13T07:56:39.954Z,99846.55
2019-03-13T07:59:15.094Z,99849.07
2019-03-13T08:01:53.303Z,99850.00
2019-03-13T08:04:25.271Z,99849.59
2019-03-13T08:06:59.976Z,99858.69
2019-03-13T08:09:48.692Z,99865.91
2019-03-13T08:12:20.675Z,99866.44
2019-03-13T08:15:10.977Z,99873.05
2019-03-13T08:17:43.105Z,99881.27
2019-03-13T08:20:21.316Z,99870.34
2019-03-13T08:22:57.194Z,99883.56
2019-03-13T08:25:29.294Z,99885.44
2019-03-13T08:28:16.695Z,99888.10
2019-03-13T08:31:05.049Z,99882.56
2019-03-13T08:33:37.088Z,99888.59
2019-03-13T08:36:15.926Z,99900.91
2019-03-13T08:38:53.829Z,99894.98
2019-03-13T08:41:37.877Z,99906.39
2019-03-13T08:44:22.287Z,99913.64
2019-03-13T08:47:09.275Z,99909.45
2019-03-13T08:49:57.609Z,99908.56
2019-03-13T08:52:29.602Z,99911.34
2019-03-13T08:55:15.012Z,99917.09
2019-03-13T08:57:51.488Z,99916.27
2019-03-13T09:00:33.151Z,99919.88
2019-03-13T09:03:07.989Z,99930.31
2019-03-13T09:05:42.674Z,99933.42
2019-03-13T09:08:14.595Z,99923.18
2019-03-13T09:10:48.604Z,99930.77
2019-03-13T09:13:26.594Z,99927.74
2019-03-13T09:16:11.967Z,99943.91
2019-03-13T09:18:43.962Z,99937.33
2019-03-13T09:21:25.039Z,99945.70
2019-03-13T09:23:57.414Z,99961.23
2019-03-13T09:26:38.438Z,99953.05
2019-03-13T09:29:22.598Z,99956.64
2019-03-13T09:32:00.824Z,99963.05
2019-03-13T09:34:35.558Z,99961.27
2019-03-13T09:37:10.640Z,99963.87
2019-03-13T09:39:47.512Z,99963.16
2019-03-13T09:42:19.761Z,99970.83
2019-03-13T09:44:51.781Z,99973.14
2019-03-13T09:47:33.143Z,99980.94
2019-03-13T09:50:12.548Z,99970.73
2019-03-13T09:52:51.284Z,99988.05
2019-03-13T09:55:29.536Z,99980.38
2019-03-13T09:58:07.306Z,99978.07
2019-03-13T10:00:48.008Z,99983.42
2019-03-13T10:03:20.465Z,99994.07
2019-03-13T10:05:55.325Z,99978.23
2019-03-13T10:08:33.282Z,99983.58
2019-03-13T10:13:57.015Z,99974.73
2019-03-13T10:16:29.209Z,99974.26
2019-03-13T10:19:04.726Z,99979.02
2019-03-13T10:21:49.134Z,99971.04
2019-03-13T10:24:21.175Z,99975.70
2019-03-13T10:26:53.165Z,99976.37
2019-03-13T10:29:31.484Z,99985.47
2019-03-13T10:32:03.515Z,99985.09
2019-03-13T10:34:50.739Z,99985.75
2019-03-13T10:37:33.250Z,99983.02
2019-03-13T10:40:18.109Z,99986.48
2019-03-13T10:43:08.214Z,99984.25
2019-03-13T10:45:49.225Z,99988.16
2019-03-13T10:48:21.293Z,99982.87
2019-03-13T10:50:59.050Z,99977.75
2019-03-13T10:53:31.369Z,99978.13
2019-03-13T10:56:03.715Z,99976.61
2019-03-13T10:58:41.579Z,99978.33
2019-03-13T11:04:01.400Z,99979.71
2019-03-13T11:06:55.238Z,99971.87
2019-03-13T11:09:27.514Z,99966.45
2019-03-13T11:12:05.820Z,99968.13
2019-03-13T11:14:54.230Z,99971.36
2019-03-13T11:17:32.832Z,99968.65
2019-03-13T11:20:17.459Z,99963.03
2019-03-13T11:22:55.716Z,99968.79
2019-03-13T11:25:45.847Z,99962.11
2019-03-13T11:28:18.030Z,99963.98
2019-03-13T11:31:06.474Z,99965.66
2019-03-13T11:33:50.697Z,99956.98
2019-03-13T11:36:35.201Z,99946.78
2019-03-13T11:39:26.606Z,99952.63
2019-03-13T11:42:14.864Z,99964.51
2019-03-13T11:45:04.988Z,99960.76
2019-03-13T11:47:42.281Z,99953.22
2019-03-13T11:50:13.269Z,99943.98
2019-03-13T11:52:51.684Z,99949.23
2019-03-13T11:55:29.658Z,99952.04
2019-03-13T11:58:19.779Z,99942.17
2019-03-13T12:01:03.959Z,99947.25
2019-03-13T12:03:54.306Z,99942.84
2019-03-13T12:06:38.475Z,99948.64
2019-03-13T12:09:13.697Z,99932.78
2019-03-13T12:12:02.091Z,99931.79
2019-03-13T12:14:49.014Z,99936.80
2019-03-13T12:17:21.006Z,99930.75
2019-03-13T12:20:08.022Z,99931.19
2019-03-13T12:22:42.711Z,99920.70
2019-03-13T12:25:28.588Z,99923.95
2019-03-13T12:28:04.351Z,99928.20
2019-03-13T12:30:36.353Z,99921.94
2019-03-13T12:33:08.378Z,99920.27
2019-03-13T12:35:43.046Z,99916.21
2019-03-13T12:38:24.853Z,99910.59
2019-03-13T12:41:06.194Z,99908.73
2019-03-13T12:43:40.987Z,99908.91
2019-03-13T12:46:18.944Z,99904.20
2019-03-13T12:48:50.966Z,99904.16
2019-03-13T12:51:41.091Z,99905.84
2019-03-13T12:54:19.188Z,99894.39
2019-03-13T12:57:03.369Z,99899.22
2019-03-13T12:59:35.268Z,99893.67
2019-03-13T13:02:07.265Z,99899.59
2019-03-13T13:04:46.695Z,99898.55
2019-03-13T13:07:21.629Z,99904.81
2019-03-13T13:10:08.779Z,99907.02
2019-03-13T13:12:43.326Z,99897.53
2019-03-13T13:15:15.432Z,99899.45
2019-03-13T13:17:50.377Z,99892.16
2019-03-13T13:20:23.930Z,99893.27
2019-03-13T13:22:52.995Z,99888.20
2019-03-13T13:25:23.812Z,99888.48
2019-03-13T13:27:54.144Z,99892.64
2019-03-13T13:30:24.548Z,99886.25
2019-03-13T13:32:55.147Z,99891.36
2019-03-13T13:35:25.690Z,99880.55
2019-03-13T13:37:56.053Z,99883.03
2019-03-13T13:40:26.786Z,99868.91
2019-03-13T13:42:57.179Z,99872.91
2019-03-13T13:45:33.586Z,99881.29
2019-03-13T13:48:03.981Z,99870.30
2019-03-13T13:50:34.523Z,99877.02
2019-03-13T13:53:04.884Z,99872.84
2019-03-13T13:58:15.386Z,99871.93
2019-03-13T14:00:46.025Z,99864.68
2019-03-13T14:03:16.574Z,99861.39
2019-03-13T14:05:47.969Z,99864.57
2019-03-13T14:08:18.235Z,99857.52
2019-03-13T14:10:48.589Z,99865.13
2019-03-13T14:13:18.943Z,99868.38
2019-03-13T14:15:49.231Z,99856.31
2019-03-13T14:18:19.594Z,99864.08
2019-03-13T14:20:49.942Z,99858.32
2019-03-13T14:23:21.591Z,99867.20
2019-03-13T14:25:52.047Z,99861.81
2019-03-13T14:28:22.616Z,99864.89
2019-03-13T14:30:52.994Z,99857.08
2019-03-13T14:33:23.961Z,99858.48
2019-03-13T14:35:54.299Z,99862.79
2019-03-13T14:38:24.637Z,99859.28
2019-03-13T14:40:55.018Z,99856.44
2019-03-13T14:43:25.693Z,99851.02
2019-03-13T14:45:58.125Z,99842.83
2019-03-13T14:48:28.952Z,99839.60
2019-03-13T14:51:01.025Z,99846.59
2019-03-13T14:53:31.383Z,99855.32
2019-03-13T14:56:01.735Z,99851.97
2019-03-13T14:58:32.147Z,99846.56
2019-03-13T15:01:02.500Z,99852.52
2019-03-13T15:03:32.864Z,99854.66
2019-03-13T15:06:03.233Z,99847.31
2019-03-13T15:08:34.810Z,99845.61
2019-03-13T15:11:05.626Z,99846.84
2019-03-13T15:13:38.900Z,99851.67
2019-03-13T15:16:09.264Z,99848.98
2019-03-13T15:18:42.245Z,99856.41
2019-03-13T15:21:12.620Z,99852.14
2019-03-13T15:23:42.952Z,99845.38
2019-03-13T15:26:13.290Z,99842.31
2019-03-13T15:28:43.878Z,99846.91
2019-03-13T15:31:15.152Z,99848.78
2019-03-13T15:33:45.880Z,99853.97
2019-03-13T15:36:16.284Z,99846.84
2019-03-13T15:38:46.720Z,99847.58
2019-03-13T15:41:17.186Z,99846.25
2019-03-13T15:43:47.552Z,99843.91
2019-03-13T15:46:17.929Z,99847.95
2019-03-13T15:48:48.231Z,99848.31
2019-03-13T15:51:18.572Z,99844.09
2019-03-13T15:53:48.974Z,99843.13
2019-03-13T15:56:19.392Z,99849.73
2019-03-13T15:58:50.623Z,99850.23
2019-03-13T16:01:20.985Z,99848.37
2019-03-13T16:03:51.406Z,99849.05
2019-03-13T16:06:22.571Z,99843.47
2019-03-13T16:08:52.928Z,99847.66
2019-03-13T16:11:23.308Z,99845.30
2019-03-13T16:13:55.758Z,99837.69
2019-03-13T16:16:26.129Z,99840.87
2019-03-13T16:18:57.112Z,99836.66
2019-03-13T16:21:27.870Z,99838.22
2019-03-13T16:23:58.542Z,99836.35
2019-03-13T16:26:29.753Z,99827.73
2019-03-13T16:29:00.118Z,99826.69
2019-03-13T16:31:30.507Z,99824.16
2019-03-13T16:34:00.993Z,99821.28
2019-03-13T16:36:33.265Z,99823.98
2019-03-13T16:39:03.702Z,99823.98
2019-03-13T16:41:37.298Z,99819.08
2019-03-13T16:44:07.750Z,99822.30
2019-03-13T16:46:38.144Z,99821.28
2019-03-13T16:49:08.497Z,99823.81
2019-03-13T16:51:39.873Z,99829.73
2019-03-13T16:54:10.228Z,99825.70
2019-03-13T16:56:40.571Z,99819.25
2019-03-13T16:59:10.947Z,99815.02
2019-03-13T17:01:41.303Z,99811.81
2019-03-13T17:04:11.704Z,99814.52
2019-03-13T17:06:42.965Z,99821.95
2019-03-13T17:09:13.386Z,99805.72
2019-03-13T17:11:44.009Z,99809.27
2019-03-13T17:14:14.496Z,99810.26
2019-03-13T17:16:45.902Z,99817.87
2019-03-13T17:19:16.342Z,99811.78
2019-03-13T17:21:46.700Z,99810.08
2019-03-13T17:24:20.810Z,99810.77
2019-03-13T17:26:51.504Z,99805.86
2019-03-13T17:29:24.189Z,99808.41
2019-03-13T17:31:54.794Z,99806.02
2019-03-13T17:34:25.156Z,99797.06
2019-03-13T17:36:55.600Z,99805.00
2019-03-13T17:39:26.085Z,99802.97
2019-03-13T17:41:58.268Z,99800.94
2019-03-13T17:44:28.746Z,99804.98
2019-03-13T17:46:59.524Z,99801.64
2019-03-13T17:49:29.956Z,99803.16
2019-03-13T17:52:01.301Z,99803.67
2019-03-13T17:54:32.166Z,99796.73
2019-03-13T17:57:02.976Z,99797.25
2019-03-13T17:59:34.690Z,99797.77
2019-03-13T18:02:05.464Z,99793.71
2019-03-13T18:04:35.911Z,99787.80
2019-03-13T18:07:06.396Z,99793.38
2019-03-13T18:09:36.895Z,99799.30
2019-03-13T18:12:08.808Z,99793.89
2019-03-13T18:14:39.237Z,99787.45
2019-03-13T18:17:09.831Z,99792.19
2019-03-13T18:19:40.442Z,99788.30
2019-03-13T18:22:10.921Z,99781.88
2019-03-13T18:24:41.916Z,99779.00
2019-03-13T18:27:12.818Z,99771.39
2019-03-13T18:29:46.088Z,99774.78
2019-03-13T18:32:16.744Z,99768.53
2019-03-13T18:34:47.453Z,99775.97
2019-03-13T18:37:18.493Z,99767.52
2019-03-13T18:39:49.655Z,99770.55
2019-03-13T18:42:20.479Z,99766.50
2019-03-13T18:44:51.299Z,99762.27
2019-03-13T18:47:22.321Z,99757.87
2019-03-13T18:49:53.098Z,99757.20
2019-03-13T18:52:23.446Z,99754.83
2019-03-13T18:54:54.392Z,99769.36
2019-03-13T18:57:25.138Z,99764.80
2019-03-13T18:59:55.502Z,99755.34
2019-03-13T19:02:26.375Z,99758.71
2019-03-13T19:04:58.209Z,99753.65
2019-03-13T19:07:28.933Z,99755.00
2019-03-13T19:09:59.578Z,99748.58
2019-03-13T19:12:29.938Z,99743.84
2019-03-13T19:15:00.817Z,99745.20
2019-03-13T19:17:33.060Z,99747.56
2019-03-13T19:20:04.798Z,99740.47
2019-03-13T19:22:35.674Z,99739.95
2019-03-13T19:25:07.948Z,99734.37
2019-03-13T19:27:38.438Z,99729.30
2019-03-13T19:30:19.569Z,99718.33
2019-03-13T19:32:50.451Z,99739.09
2019-03-13T19:35:21.250Z,99723.23
2019-03-13T19:37:52.307Z,99720.70
2019-03-13T19:40:23.558Z,99724.08
2019-03-13T19:42:54.867Z,99725.93
2019-03-13T19:45:35.377Z,99712.41
2019-03-13T19:48:06.517Z,99712.41
2019-03-13T19:50:37.568Z,99708.36
2019-03-13T19:53:08.065Z,99705.99
2019-03-13T19:55:38.690Z,99696.36
2019-03-13T19:58:09.611Z,99706.33
2019-03-13T20:00:41.483Z,99702.09
2019-03-13T20:03:18.892Z,99706.66
2019-03-13T20:05:49.465Z,99702.10
2019-03-13T20:08:20.198Z,99698.38
2019-03-13T20:10:50.820Z,99693.84
2019-03-13T20:13:21.370Z,99691.80
2019-03-13T20:15:51.903Z,99689.94
2019-03-13T20:18:22.390Z,99693.15
2019-03-13T20:20:54.533Z,99684.02
2019-03-13T20:23:25.152Z,99684.19
2019-03-13T20:25:59.075Z,99688.78
2019-03-13T20:28:29.686Z,99685.73
2019-03-13T20:31:00.307Z,99684.72
2019-03-13T20:33:31.056Z,99682.69
2019-03-13T20:36:02.969Z,99682.69
2019-03-13T20:38:33.430Z,99671.88
2019-03-13T20:41:04.193Z,99674.91
2019-03-13T20:43:34.868Z,99668.50
2019-03-13T20:46:05.836Z,99667.15
2019-03-13T20:48:38.688Z,99670.02
2019-03-13T20:51:09.683Z,99672.22
2019-03-13T20:53:40.211Z,99670.88
2019-03-13T20:56:11.860Z,99660.73
2019-03-13T20:58:42.937Z,99662.59
2019-03-13T21:01:15.003Z,99666.13
2019-03-13T21:03:46.127Z,99663.42
2019-03-13T21:06:16.950Z,99646.86
2019-03-13T21:08:47.352Z,99647.89
2019-03-13T21:11:17.830Z,99646.20
2019-03-13T21:13:48.174Z,99644.86
2019-03-13T21:16:19.663Z,99641.12
2019-03-13T21:18:50.069Z,99634.05
2019-03-13T21:21:20.455Z,99639.45
2019-03-13T21:23:52.035Z,99623.58
2019-03-13T21:26:22.412Z,99632.36
2019-03-13T21:28:52.897Z,99624.42
2019-03-13T21:31:23.241Z,99620.20
2019-03-13T21:33:53.663Z,99624.09
2019-03-13T21:36:25.662Z,99621.05
2019-03-13T21:38:56.055Z,99622.91
2019-03-13T21:41:26.456Z,99612.61
2019-03-13T21:43:56.830Z,99613.11
2019-03-13T21:46:27.185Z,99606.53
2019-03-13T21:48:57.682Z,99606.36
2019-03-13T21:51:29.133Z,99605.52
2019-03-13T21:53:59.496Z,99603.15
2019-03-13T21:56:29.880Z,99609.72
2019-03-13T21:59:00.299Z,99606.34
2019-03-13T22:01:30.668Z,99610.05
2019-03-13T22:04:01.020Z,99606.67
2019-03-13T22:06:31.475Z,99604.66
2019-03-13T22:09:01.909Z,99603.64
2019-03-13T22:11:35.166Z,99603.45
2019-03-13T22:14:05.537Z,99603.13
2019-03-13T22:16:36.912Z,99596.72
2019-03-13T22:19:07.271Z,99597.91
2019-03-13T22:21:37.613Z,99595.20
2019-03-13T22:24:07.974Z,99591.98
2019-03-13T22:26:38.333Z,99592.48
2019-03-13T22:29:08.694Z,99594.84
2019-03-13T22:31:39.210Z,99589.78
2019-03-13T22:34:10.828Z,99586.72
2019-03-13T22:36:42.100Z,99588.59
2019-03-13T22:39:12.587Z,99576.27
2019-03-13T22:41:43.023Z,99583.00
2019-03-13T22:44:13.375Z,99575.08
2019-03-13T22:46:44.643Z,99574.59
2019-03-13T22:49:15.000Z,99573.73
2019-03-13T22:51:45.296Z,99570.19
2019-03-13T22:54:15.566Z,99567.49
2019-03-13T22:56:45.844Z,99570.54
2019-03-13T22:59:16.195Z,99557.70
2019-03-13T23:01:46.548Z,99556.86
2019-03-13T23:04:18.384Z,99551.28
2019-03-13T23:06:48.732Z,99544.39
2019-03-13T23:09:19.142Z,99542.53
2019-03-13T23:11:49.494Z,99539.32
2019-03-13T23:14:19.745Z,99538.48
2019-03-13T23:16:50.191Z,99539.34
2019-03-13T23:19:20.522Z,99538.16
2019-03-13T23:21:50.906Z,99534.77
2019-03-13T23:24:21.182Z,99531.23
2019-03-13T23:26:51.511Z,99531.23
2019-03-13T23:29:21.852Z,99536.47
2019-03-13T23:31:52.271Z,99538.81
2019-03-13T23:34:22.649Z,99538.14
2019-03-13T23:36:53.535Z,99536.63
2019-03-13T23:39:23.863Z,99533.25
2019-03-13T23:41:54.236Z,99528.36
2019-03-13T23:44:24.595Z,99530.05
2019-03-13T23:46:54.973Z,99537.81
2019-03-13T23:49:25.445Z,99533.09
2019-03-13T23:51:55.807Z,99532.41
2019-03-13T23:54:26.215Z,99534.09
2019-03-13T23:56:56.568Z,99523.30
2019-03-13T23:59:26.908Z,99524.48
